Strona główna
METAR-TAF:

METAR-TAF

Lotnisko :

Port lotniczy Lublin

Lublin, Polska

Szerokość geograficzna: 51-13-55N, Długość geograficzna: 22-41-25E, wysokość: 203 m

Aktualna obserwacja pogody

Raport powstał 42 minut temu, godzina 11:00 UTC
Wiatr 15 kt od zachodnio-północny zachód
Temperatura 9°C
Wilgotność 49%
Ciśnienie 1009 hPa
Widzialność 10 km lub więcej
Brak chmur poniżej 1500 m i brak chmur cumulonimbus

METAR: EPLB 031100Z 29015KT CAVOK 09/M01 Q1009

czas: 13:42 (11:42 UTC)

Prognoza

Raport powstał 12 minut temu, godzina 11:30 UTC
Prognoza ważna od 03 godzina 12 UTC do 03 godzina 21 UTC
Wiatr 12 kt od zachodnio-południowy zachód
Widzialność 10 km lub więcej
Brak chmur poniżej 1500 m i brak chmur cumulonimbus
Przejściowo
od 03 godzina 12 UTC do 03 godzina 15 UTC
Wiatr 17 kt od zachodnio-północny zachód w porywach dochodzący do 28 kt
Przerywane chmury na wysokości 3000 ft, Cumulonimbus.

TAF: EPLB 031130Z 0312/0321 25012KT CAVOK TEMPO 0312/0315 29017G28KT BKN030CB

Obserwacja i prognoza pogody dla ponad 4000 lotnisk (raport METAR i TAF).

Dostępne stacje oznaczono żółtymi i czerwonymi punktami na mapie.

Najedź kursorem aby zobaczyć nazwę stacji.

Kliknij aby zobaczyć obserwacje i prognozy pogody.

Aby zmienić mapę: kliknij na zielony przycisk z czarnym krzyżykiem, aby powiększyć; na zielony przycisk z myślnikiem, aby pomniejszyć; na zielone strzałki, aby przejść do map sąsiednich.


METAR-TAF: